Time;durP1;ratioP1;P1;durP2;ratioP2;P2;SDS_P1;SDS_P2;PMS_P1;PMS_P2;Temp;Humidity;BMP_temperature;BMP_pressure;BME280_temperature;BME280_humidity;BME280_pressure;Samples;Min_cycle;Max_cycle;Signal;HPM_P1;HPM_P2
2021/12/14 00:01:12;;;;;;;73.35;50.47;;;19.00;59.00;;;;;;4943600;28;91556;-74
2021/12/14 00:03:41;;;;;;;73.85;50.40;;;19.00;59.10;;;;;;4951889;28;89279;-75
2021/12/14 00:06:09;;;;;;;73.72;50.42;;;19.00;59.10;;;;;;4940578;28;95217;-76
2021/12/14 00:08:47;;;;;;;73.78;50.55;;;18.90;59.10;;;;;;4945348;28;89982;-76
2021/12/14 00:11:29;;;;;;;74.25;50.47;;;18.90;59.20;;;;;;4949481;28;90988;-76
2021/12/14 00:14:11;;;;;;;74.07;50.63;;;18.90;59.20;;;;;;4953530;28;89935;-76
2021/12/14 00:16:37;;;;;;;73.82;50.58;;;18.90;59.10;;;;;;4946008;28;92065;-75
2021/12/14 00:19:03;;;;;;;74.28;50.65;;;18.90;59.10;;;;;;4954120;28;90495;-76
2021/12/14 00:21:30;;;;;;;75.35;50.83;;;18.90;59.20;;;;;;4958687;28;89522;-76
2021/12/14 00:24:06;;;;;;;73.85;50.53;;;18.90;59.20;;;;;;4953255;28;90025;-75
2021/12/14 00:27:00;;;;;;;73.97;50.65;;;18.90;59.30;;;;;;4956171;28;91997;-75
2021/12/14 00:29:31;;;;;;;74.03;50.60;;;18.80;59.20;;;;;;4956765;28;90063;-75
2021/12/14 00:32:00;;;;;;;74.80;50.60;;;18.80;59.20;;;;;;4950548;28;89684;-75
2021/12/14 00:34:37;;;;;;;73.43;50.55;;;18.80;59.20;;;;;;4955201;28;90743;-75
2021/12/14 00:37:09;;;;;;;74.03;50.40;;;18.80;59.80;;;;;;4951206;28;92181;-74
2021/12/14 00:39:35;;;;;;;74.18;50.75;;;18.80;59.20;;;;;;4954524;28;91964;-75
2021/12/14 00:42:07;;;;;;;74.32;50.60;;;18.80;59.20;;;;;;4955550;28;89473;-74
2021/12/14 00:44:34;;;;;;;73.95;50.47;;;18.80;59.20;;;;;;4954040;28;89762;-75
2021/12/14 00:47:00;;;;;;;73.63;50.55;;;18.80;59.20;;;;;;4946942;28;90332;-74
2021/12/14 00:49:26;;;;;;;73.75;50.38;;;18.80;59.20;;;;;;4949866;28;90734;-75
2021/12/14 00:51:54;;;;;;;73.68;50.47;;;18.80;59.30;;;;;;4957244;28;90586;-74
2021/12/14 00:54:21;;;;;;;73.55;50.25;;;18.80;59.20;;;;;;4950617;28;89897;-74
2021/12/14 00:56:48;;;;;;;73.30;50.20;;;18.80;59.30;;;;;;4954067;28;90592;-74
2021/12/14 00:59:15;;;;;;;73.25;50.30;;;18.70;59.30;;;;;;4955336;28;93256;-74
2021/12/14 01:02:11;;;;;;;73.47;50.42;;;18.70;59.30;;;;;;4945217;28;92003;-75
2021/12/14 01:04:48;;;;;;;74.00;50.50;;;18.70;59.20;;;;;;4935397;28;94887;-75
2021/12/14 01:07:17;;;;;;;73.60;50.55;;;18.70;59.30;;;;;;4909158;28;93454;-75
2021/12/14 01:09:46;;;;;;;72.90;50.28;;;18.70;59.30;;;;;;4932102;28;91488;-75
2021/12/14 01:12:20;;;;;;;73.53;50.38;;;18.70;59.50;;;;;;4943080;28;90752;-75
2021/12/14 01:15:26;;;;;;;73.50;50.45;;;18.70;59.30;;;;;;4942430;28;91996;-76
2021/12/14 01:18:29;;;;;;;73.60;50.70;;;18.70;59.20;;;;;;4947966;28;90880;-75
2021/12/14 01:21:01;;;;;;;73.30;50.45;;;18.70;59.30;;;;;;4944741;28;90804;-75
2021/12/14 01:23:32;;;;;;;73.82;50.58;;;18.70;59.30;;;;;;4946276;28;90280;-75
2021/12/14 01:26:18;;;;;;;65.80;45.78;;;18.70;59.30;;;;;;3961479;28;10094823;-75
2021/12/14 01:28:46;;;;;;;73.43;50.37;;;18.70;59.30;;;;;;2012181;28;10094346;-74
2021/12/14 01:31:28;;;;;;;73.82;50.83;;;18.70;59.30;;;;;;4922665;28;91396;-74
2021/12/14 01:33:59;;;;;;;74.32;50.63;;;18.70;59.30;;;;;;4934665;28;89515;-74
2021/12/14 01:42:06;;;;;;;73.20;50.05;;;18.70;59.30;;;;;;4923581;28;90236;-74
2021/12/14 01:44:35;;;;;;;73.47;50.40;;;18.70;59.30;;;;;;4921088;28;91981;-74
2021/12/14 01:47:07;;;;;;;73.43;50.42;;;18.60;59.30;;;;;;4930668;28;89236;-75
2021/12/14 01:49:33;;;;;;;73.05;50.45;;;18.60;59.20;;;;;;4937943;28;90795;-74
2021/12/14 01:52:05;;;;;;;73.55;50.45;;;18.60;59.20;;;;;;4934540;28;91352;-75
2021/12/14 01:54:36;;;;;;;73.68;50.65;;;18.60;59.80;;;;;;4932662;28;90649;-75
2021/12/14 01:57:07;;;;;;;73.80;50.80;;;18.60;59.30;;;;;;4926473;28;89883;-75
2021/12/14 01:59:36;;;;;;;73.93;50.40;;;18.60;59.30;;;;;;4934766;28;90104;-75
2021/12/14 02:02:21;;;;;;;73.28;50.38;;;18.60;59.30;;;;;;4924200;28;89776;-75
2021/12/14 02:04:51;;;;;;;73.97;50.65;;;18.60;59.30;;;;;;4929404;28;93870;-75
2021/12/14 02:07:19;;;;;;;73.85;50.50;;;18.60;59.30;;;;;;4921470;28;89737;-75
2021/12/14 02:09:48;;;;;;;73.60;50.45;;;18.60;59.20;;;;;;4927354;28;91342;-75
2021/12/14 02:12:21;;;;;;;73.57;50.40;;;18.60;59.20;;;;;;4931625;28;92187;-75
2021/12/14 02:14:47;;;;;;;73.25;50.42;;;18.60;59.20;;;;;;4928020;28;91927;-75
2021/12/14 02:17:16;;;;;;;73.45;50.50;;;18.60;59.30;;;;;;4932256;28;89456;-75
2021/12/14 02:19:43;;;;;;;73.68;50.75;;;18.60;59.20;;;;;;4932178;28;91413;-75
2021/12/14 02:22:09;;;;;;;73.75;50.65;;;18.60;59.30;;;;;;4932249;28;91185;-76
2021/12/14 02:24:38;;;;;;;73.22;50.30;;;18.60;59.30;;;;;;4933604;28;90841;-77
2021/12/14 02:27:05;;;;;;;73.65;50.70;;;18.60;59.30;;;;;;4932653;28;89580;-75
2021/12/14 02:29:37;;;;;;;74.65;50.83;;;18.60;59.20;;;;;;4928387;28;90643;-75
2021/12/14 02:32:26;;;;;;;73.28;50.42;;;18.60;59.20;;;;;;4926193;28;89912;-75
2021/12/14 02:35:00;;;;;;;74.22;50.65;;;18.60;59.30;;;;;;4938689;28;89510;-75
2021/12/14 02:38:02;;;;;;;73.38;50.80;;;18.60;59.20;;;;;;4930303;28;89968;-75
2021/12/14 02:40:53;;;;;;;72.82;50.10;;;18.60;59.20;;;;;;4930287;28;90958;-75
2021/12/14 02:43:48;;;;;;;73.55;50.50;;;18.60;59.20;;;;;;4933148;28;90823;-75
2021/12/14 02:46:15;;;;;;;74.53;50.72;;;18.60;59.20;;;;;;4930211;28;92377;-74
2021/12/14 02:48:44;;;;;;;73.55;50.45;;;18.50;59.20;;;;;;4942023;28;89569;-74
2021/12/14 02:51:15;;;;;;;73.43;50.45;;;18.60;59.20;;;;;;4934834;28;89870;-74
2021/12/14 02:53:42;;;;;;;75.20;51.28;;;18.50;59.20;;;;;;4929713;28;92002;-74
2021/12/14 02:56:14;;;;;;;73.35;50.58;;;18.50;59.20;;;;;;4935388;28;91524;-75
2021/12/14 02:58:41;;;;;;;73.95;50.75;;;18.60;59.20;;;;;;4936760;28;89494;-74
2021/12/14 03:01:07;;;;;;;75.65;50.92;;;18.50;59.20;;;;;;4931103;28;89855;-75
2021/12/14 03:03:35;;;;;;;73.95;50.92;;;18.60;59.30;;;;;;4939167;28;89132;-75
2021/12/14 03:06:01;;;;;;;73.82;50.50;;;18.50;59.20;;;;;;4930770;28;94072;-75
2021/12/14 03:08:31;;;;;;;74.95;51.13;;;18.50;59.80;;;;;;4926594;28;96106;-74
2021/12/14 03:11:10;;;;;;;75.22;51.42;;;18.50;59.20;;;;;;4927912;28;91640;-75
2021/12/14 03:13:43;;;;;;;73.60;50.90;;;18.50;59.20;;;;;;4929352;28;90692;-74
2021/12/14 03:16:16;;;;;;;74.80;51.35;;;18.50;59.10;;;;;;4934424;28;91697;-75
2021/12/14 03:18:47;;;;;;;73.57;50.63;;;18.50;59.20;;;;;;4937993;28;89721;-76
2021/12/14 03:21:35;;;;;;;74.03;50.50;;;18.50;59.20;;;;;;4930428;28;89654;-76
2021/12/14 03:24:15;;;;;;;73.78;50.88;;;18.50;59.10;;;;;;4929323;28;90739;-76
2021/12/14 03:26:44;;;;;;;73.55;51.00;;;18.50;59.20;;;;;;4932017;28;93650;-77
2021/12/14 03:29:18;;;;;;;74.75;50.65;;;18.50;59.10;;;;;;4930175;28;89108;-76
2021/12/14 03:31:46;;;;;;;74.78;51.42;;;18.50;59.10;;;;;;4926930;28;89369;-76
2021/12/14 03:34:23;;;;;;;74.40;51.17;;;18.50;59.20;;;;;;4937479;28;93295;-76
2021/12/14 03:37:03;;;;;;;74.45;51.13;;;18.50;59.20;;;;;;4929084;28;90763;-76
2021/12/14 03:39:33;;;;;;;73.72;50.97;;;18.50;59.10;;;;;;4931155;28;90198;-76
2021/12/14 03:42:35;;;;;;;74.82;51.45;;;18.50;59.20;;;;;;4930592;28;90075;-74
2021/12/14 03:45:01;;;;;;;;;;;18.50;59.20;;;;;;4932475;28;92708;-74
2021/12/14 03:47:38;;;;;;;73.20;50.65;;;18.50;59.10;;;;;;4931342;28;90417;-74
2021/12/14 03:50:09;;;;;;;74.40;51.53;;;18.50;59.20;;;;;;4935485;28;89355;-74
2021/12/14 03:52:37;;;;;;;73.75;51.08;;;18.50;59.20;;;;;;4927819;28;90974;-75
2021/12/14 03:55:11;;;;;;;74.45;51.35;;;18.50;59.10;;;;;;4934971;28;90395;-75
2021/12/14 03:57:37;;;;;;;74.10;51.22;;;18.50;59.20;;;;;;4932352;28;91786;-76
2021/12/14 04:00:07;;;;;;;74.80;51.55;;;18.40;59.10;;;;;;4931752;28;90391;-75
2021/12/14 04:02:34;;;;;;;74.63;51.53;;;18.40;59.10;;;;;;4929428;28;91550;-76
2021/12/14 04:05:05;;;;;;;73.68;50.78;;;18.50;59.20;;;;;;4936005;28;90991;-75
2021/12/14 04:07:33;;;;;;;74.47;51.67;;;18.50;59.10;;;;;;4927012;28;94312;-76
2021/12/14 04:09:59;;;;;;;74.65;51.05;;;18.50;59.10;;;;;;4933246;28;90118;-75
2021/12/14 04:12:26;;;;;;;75.30;51.60;;;18.40;59.10;;;;;;4936070;28;89823;-75
2021/12/14 04:14:55;;;;;;;74.60;51.55;;;18.50;59.10;;;;;;4929691;28;94454;-75
2021/12/14 04:17:25;;;;;;;73.72;51.15;;;18.40;59.00;;;;;;4928588;28;91177;-75
2021/12/14 04:19:51;;;;;;;74.68;51.10;;;18.40;59.00;;;;;;4927468;28;89886;-75
2021/12/14 04:22:23;;;;;;;75.53;51.50;;;18.40;59.10;;;;;;4935579;28;89581;-75
2021/12/14 04:24:54;;;;;;;75.78;51.45;;;18.40;59.00;;;;;;4933309;28;90693;-74
2021/12/14 04:27:23;;;;;;;74.30;51.15;;;18.40;59.00;;;;;;4927806;28;92144;-75
2021/12/14 04:29:51;;;;;;;74.80;51.67;;;18.40;59.00;;;;;;4934744;28;89988;-74
2021/12/14 04:32:18;;;;;;;73.97;51.28;;;18.40;59.00;;;;;;4930575;28;92282;-74
2021/12/14 04:34:44;;;;;;;76.85;52.42;;;18.40;59.00;;;;;;4936760;28;90847;-75
2021/12/14 04:37:14;;;;;;;74.13;51.63;;;18.40;59.00;;;;;;4930007;28;90106;-76
2021/12/14 04:39:45;;;;;;;74.53;51.35;;;18.40;59.10;;;;;;4934542;28;89555;-76
2021/12/14 04:54:01;;;;;;;74.90;51.50;;;18.40;59.00;;;;;;4936627;28;92606;-76
2021/12/14 04:56:37;;;;;;;74.18;51.30;;;18.40;59.00;;;;;;4940179;28;90157;-76
2021/12/14 04:59:23;;;;;;;74.13;51.35;;;18.40;59.00;;;;;;4932584;28;92277;-76
2021/12/14 05:01:51;;;;;;;75.22;51.38;;;18.40;59.10;;;;;;4934640;28;90344;-76
2021/12/14 05:04:21;;;;;;;75.18;51.38;;;18.40;59.10;;;;;;4934731;28;90035;-75
2021/12/14 05:06:50;;;;;;;74.53;51.38;;;18.40;59.00;;;;;;4933566;28;91981;-74
2021/12/14 05:09:26;;;;;;;75.38;51.88;;;18.40;59.00;;;;;;4921383;28;90592;-75
2021/12/14 05:12:07;;;;;;;74.85;51.67;;;18.40;59.00;;;;;;4934065;28;89127;-75
2021/12/14 05:14:35;;;;;;;75.53;51.80;;;18.40;59.00;;;;;;4929725;28;91109;-76
2021/12/14 05:17:05;;;;;;;75.40;52.22;;;18.40;59.00;;;;;;4934533;28;90093;-76
2021/12/14 05:19:34;;;;;;;76.95;52.55;;;18.40;59.00;;;;;;4936721;28;90873;-75
2021/12/14 05:22:13;;;;;;;74.93;51.75;;;18.40;59.10;;;;;;4932884;28;90661;-75
2021/12/14 05:24:42;;;;;;;74.22;51.28;;;18.40;59.10;;;;;;4936316;28;91223;-75
2021/12/14 05:27:14;;;;;;;76.15;52.83;;;18.40;59.30;;;;;;4936171;28;90746;-75
2021/12/14 05:29:41;;;;;;;74.53;51.78;;;18.50;59.30;;;;;;4936016;28;89979;-75
2021/12/14 05:32:09;;;;;;;75.65;52.05;;;18.50;59.20;;;;;;4931492;28;89829;-74
2021/12/14 05:34:37;;;;;;;77.55;51.83;;;18.60;59.20;;;;;;4934108;28;91045;-74
2021/12/14 05:37:05;;;;;;;75.85;52.47;;;18.70;59.10;;;;;;4934566;28;89433;-75
2021/12/14 05:39:52;;;;;;;78.68;54.38;;;18.80;58.70;;;;;;4929163;28;90756;-76
2021/12/14 05:45:12;;;;;;;78.07;53.53;;;19.10;58.50;;;;;;4930807;28;91158;-75
2021/12/14 05:47:53;;;;;;;75.00;52.35;;;19.30;58.20;;;;;;4938229;28;90938;-74
2021/12/14 05:50:25;;;;;;;80.18;53.17;;;19.40;57.70;;;;;;4934132;28;90829;-75
2021/12/14 05:52:51;;;;;;;77.72;52.67;;;19.50;57.50;;;;;;4931591;28;90035;-75
2021/12/14 05:55:24;;;;;;;77.80;52.85;;;19.60;57.10;;;;;;4937573;28;90130;-74
2021/12/14 05:57:51;;;;;;;79.55;53.10;;;19.70;57.20;;;;;;4930982;28;92217;-74
2021/12/14 06:00:18;;;;;;;78.63;53.00;;;19.80;56.70;;;;;;4925950;28;90267;-75
2021/12/14 06:02:45;;;;;;;76.20;52.50;;;19.90;56.80;;;;;;4937736;28;89171;-75
2021/12/14 06:05:14;;;;;;;76.38;52.67;;;19.90;56.40;;;;;;4938761;28;89520;-74
2021/12/14 06:07:40;;;;;;;78.82;52.22;;;20.00;56.80;;;;;;4929917;28;92179;-74
2021/12/14 06:10:07;;;;;;;76.72;52.72;;;20.00;56.10;;;;;;4924842;28;93784;-74
2021/12/14 06:12:35;;;;;;;80.47;52.53;;;20.10;56.00;;;;;;4926195;28;89920;-75
2021/12/14 06:15:03;;;;;;;77.53;52.17;;;20.10;56.20;;;;;;4929835;28;90540;-75
2021/12/14 06:17:33;;;;;;;77.30;52.72;;;20.10;56.20;;;;;;4926025;28;92876;-74
2021/12/14 06:20:08;;;;;;;79.90;52.45;;;20.20;55.90;;;;;;4936103;28;89786;-74
2021/12/14 06:22:34;;;;;;;77.25;52.30;;;20.20;55.80;;;;;;4927477;28;91482;-75
2021/12/14 06:25:04;;;;;;;76.43;51.97;;;20.20;55.70;;;;;;4916978;28;94283;-74
2021/12/14 06:27:32;;;;;;;80.88;53.05;;;20.20;55.70;;;;;;4924122;28;91935;-74
2021/12/14 06:30:02;;;;;;;80.20;52.90;;;20.20;55.80;;;;;;4910220;28;90668;-74
2021/12/14 06:32:31;;;;;;;84.93;52.65;;;20.20;55.80;;;;;;4918399;28;90305;-74
2021/12/14 06:35:17;;;;;;;89.78;53.00;;;20.20;55.80;;;;;;4922437;28;91330;-74
2021/12/14 06:40:50;;;;;;;81.55;52.80;;;20.20;56.00;;;;;;4929000;28;91489;-74
2021/12/14 06:43:23;;;;;;;82.53;53.85;;;20.20;56.60;;;;;;4925914;28;90159;-74
2021/12/14 06:45:55;;;;;;;95.25;57.72;;;20.10;55.70;;;;;;4923531;28;90719;-75
2021/12/14 06:48:27;;;;;;;90.95;57.60;;;19.90;57.00;;;;;;4939567;28;92713;-75
2021/12/14 06:50:55;;;;;;;92.50;56.65;;;19.90;57.80;;;;;;4925743;28;92488;-75
2021/12/14 06:53:22;;;;;;;94.55;57.25;;;19.80;58.00;;;;;;4918766;28;89449;-82
2021/12/14 06:55:55;;;;;;;91.68;58.75;;;19.80;58.60;;;;;;4930794;28;90691;-82
2021/12/14 06:58:24;;;;;;;92.75;57.10;;;19.80;58.50;;;;;;4931159;28;90656;-83
2021/12/14 07:01:14;;;;;;;94.70;56.65;;;19.80;58.70;;;;;;4926078;28;90509;-81
2021/12/14 07:03:46;;;;;;;97.93;56.72;;;19.80;59.10;;;;;;4929691;28;90306;-81
2021/12/14 07:06:27;;;;;;;92.13;56.28;;;20.00;58.50;;;;;;4931832;28;89816;-81
2021/12/14 07:08:54;;;;;;;;;;;20.20;58.00;;;;;;4920465;28;92324;-80
2021/12/14 07:11:23;;;;;;;91.95;56.10;;;20.20;58.10;;;;;;4924168;28;94286;-81
2021/12/14 07:13:50;;;;;;;90.93;56.20;;;20.10;58.60;;;;;;4925975;28;89649;-81
2021/12/14 07:16:22;;;;;;;88.22;56.55;;;19.90;58.90;;;;;;4916224;28;90886;-81
2021/12/14 07:18:51;;;;;;;93.85;57.30;;;19.90;59.30;;;;;;4916609;28;93459;-82
2021/12/14 07:21:38;;;;;;;86.60;56.45;;;19.90;59.20;;;;;;4918973;28;91479;-82
2021/12/14 07:24:29;;;;;;;87.15;56.67;;;19.80;58.90;;;;;;4920696;28;90414;-83
2021/12/14 07:27:18;;;;;;;88.85;57.50;;;19.80;58.60;;;;;;4924759;28;90981;-82
2021/12/14 07:29:45;;;;;;;86.68;57.25;;;19.80;58.20;;;;;;4929373;28;90765;-78
2021/12/14 07:32:10;;;;;;;87.15;56.47;;;19.80;58.40;;;;;;4924731;28;92230;-78
2021/12/14 07:34:36;;;;;;;89.80;56.00;;;19.80;58.50;;;;;;4927407;28;89934;-78
2021/12/14 07:37:02;;;;;;;86.07;56.08;;;19.80;58.70;;;;;;4928611;28;90310;-80
2021/12/14 07:39:28;;;;;;;86.80;55.97;;;19.80;58.50;;;;;;4932553;28;90365;-80
2021/12/14 07:41:58;;;;;;;85.35;56.50;;;19.90;58.80;;;;;;4926471;28;94251;-79
2021/12/14 07:44:32;;;;;;;101.20;57.93;;;19.90;58.70;;;;;;4924641;28;90197;-79
2021/12/14 07:46:58;;;;;;;91.00;58.33;;;19.90;58.50;;;;;;4927305;28;90731;-78
2021/12/14 07:49:23;;;;;;;92.00;59.20;;;19.90;58.40;;;;;;4929486;28;89883;-78
2021/12/14 07:51:53;;;;;;;94.53;58.83;;;19.90;57.90;;;;;;4929834;28;91518;-79
2021/12/14 07:54:29;;;;;;;93.47;60.00;;;19.90;57.90;;;;;;4923185;28;89947;-79
2021/12/14 07:57:07;;;;;;;90.13;59.15;;;19.90;57.50;;;;;;4930401;28;89987;-79
2021/12/14 07:59:36;;;;;;;90.78;59.08;;;19.90;57.20;;;;;;4928953;28;92336;-78
2021/12/14 08:02:14;;;;;;;88.32;59.20;;;19.90;56.80;;;;;;4913474;28;91824;-78
2021/12/14 08:04:49;;;;;;;92.82;59.70;;;20.00;56.70;;;;;;4918548;28;90149;-81
2021/12/14 08:07:23;;;;;;;94.90;60.97;;;19.90;56.80;;;;;;4920314;28;90658;-81
2021/12/14 08:09:51;;;;;;;93.68;61.47;;;19.90;56.90;;;;;;4918399;28;90006;-80
2021/12/14 08:12:50;;;;;;;94.35;61.85;;;19.90;56.70;;;;;;4915482;28;90314;-81
2021/12/14 08:15:34;;;;;;;95.18;62.03;;;20.00;56.60;;;;;;4931515;28;90492;-80
2021/12/14 08:18:10;;;;;;;93.40;60.60;;;20.00;55.90;;;;;;4919279;28;91385;-80
2021/12/14 08:20:44;;;;;;;92.57;60.25;;;20.00;55.80;;;;;;4919432;28;90574;-80
2021/12/14 08:23:18;;;;;;;88.78;60.05;;;20.00;55.80;;;;;;4917550;28;90830;-82
2021/12/14 08:25:45;;;;;;;89.35;59.85;;;20.00;55.80;;;;;;4910624;28;90121;-78
2021/12/14 08:28:12;;;;;;;91.00;60.05;;;20.00;56.00;;;;;;4909093;28;91762;-77
2021/12/14 08:30:43;;;;;;;93.55;61.47;;;20.00;56.10;;;;;;4898240;28;90752;-80
2021/12/14 08:33:21;;;;;;;93.13;61.58;;;20.00;55.90;;;;;;4908253;28;91564;-81
2021/12/14 08:35:47;;;;;;;94.82;62.25;;;20.00;55.70;;;;;;4901149;28;89689;-80
2021/12/14 08:38:17;;;;;;;92.85;61.72;;;20.00;55.60;;;;;;4896740;28;90362;-79
2021/12/14 08:40:47;;;;;;;89.18;61.15;;;20.00;55.40;;;;;;4894250;28;91474;-80
2021/12/14 08:43:24;;;;;;;91.93;61.75;;;20.10;55.30;;;;;;4893576;28;92830;-80
2021/12/14 08:46:05;;;;;;;95.43;62.50;;;20.00;55.10;;;;;;4911459;28;91829;-80
2021/12/14 08:48:33;;;;;;;;;;;20.00;54.80;;;;;;4909603;28;90300;-79
2021/12/14 08:51:12;;;;;;;94.18;61.58;;;20.10;55.30;;;;;;4912344;28;95599;-78
2021/12/14 08:53:39;;;;;;;93.35;61.28;;;20.10;54.70;;;;;;4915859;28;90898;-80
2021/12/14 08:56:07;;;;;;;96.72;62.85;;;20.10;54.40;;;;;;4915495;28;90866;-80
2021/12/14 08:58:34;;;;;;;91.35;60.72;;;20.10;54.40;;;;;;4909281;28;91004;-80
2021/12/14 09:01:08;;;;;;;93.18;61.72;;;20.10;54.20;;;;;;4909106;28;89383;-79
2021/12/14 09:03:41;;;;;;;90.72;61.53;;;20.20;54.10;;;;;;4913853;28;91745;-79
2021/12/14 09:06:11;;;;;;;90.78;60.72;;;20.20;54.10;;;;;;4906805;28;91069;-79
2021/12/14 09:08:39;;;;;;;93.05;61.72;;;20.20;54.00;;;;;;4909956;28;91962;-80
2021/12/14 09:11:07;;;;;;;90.40;61.47;;;20.20;53.80;;;;;;4912389;28;93632;-81
2021/12/14 09:13:33;;;;;;;93.13;61.65;;;20.20;53.70;;;;;;4907383;28;91430;-81
2021/12/14 09:16:03;;;;;;;91.85;61.00;;;20.20;53.70;;;;;;4910886;28;91185;-81
2021/12/14 09:18:33;;;;;;;91.07;61.10;;;20.20;53.70;;;;;;4909347;28;90898;-81
2021/12/14 09:21:13;;;;;;;92.07;60.80;;;20.20;53.60;;;;;;4915281;28;90983;-81
2021/12/14 09:23:43;;;;;;;90.03;61.17;;;20.20;53.80;;;;;;4914516;28;90613;-81
2021/12/14 09:26:14;;;;;;;95.40;62.08;;;20.20;53.70;;;;;;4916137;28;89177;-80
2021/12/14 09:28:40;;;;;;;93.80;61.70;;;20.30;53.60;;;;;;4910924;28;90731;-81
2021/12/14 09:31:13;;;;;;;91.43;61.75;;;20.30;53.60;;;;;;4910245;28;91224;-81
2021/12/14 09:33:40;;;;;;;93.95;61.30;;;20.30;53.50;;;;;;4906092;28;90645;-81
2021/12/14 09:36:12;;;;;;;94.07;60.75;;;20.30;53.50;;;;;;4917656;28;91883;-81
2021/12/14 09:38:43;;;;;;;91.72;61.03;;;20.30;53.40;;;;;;4923027;28;91676;-80
2021/12/14 09:41:11;;;;;;;89.28;60.33;;;20.30;53.30;;;;;;4926572;28;91224;-82
2021/12/14 09:43:38;;;;;;;91.38;61.65;;;20.30;53.40;;;;;;4927157;28;91471;-79
2021/12/14 09:46:06;;;;;;;90.05;61.22;;;20.30;53.30;;;;;;4934599;28;91077;-79
2021/12/14 09:48:39;;;;;;;91.25;60.75;;;20.30;53.10;;;;;;4920887;28;90419;-81
2021/12/14 09:51:12;;;;;;;91.30;61.10;;;20.30;53.10;;;;;;4937571;28;91736;-80
2021/12/14 09:53:42;;;;;;;89.95;60.75;;;20.30;52.60;;;;;;4927139;28;92338;-81
2021/12/14 09:56:09;;;;;;;87.47;60.42;;;20.30;52.60;;;;;;4928911;28;91652;-81
2021/12/14 09:58:43;;;;;;;89.80;60.17;;;20.30;52.50;;;;;;4928639;28;92826;-81
2021/12/14 10:01:16;;;;;;;88.78;60.08;;;20.30;52.50;;;;;;4922230;28;92198;-81
2021/12/14 10:03:46;;;;;;;88.40;59.40;;;20.30;52.40;;;;;;4915076;28;90828;-79
2021/12/14 10:06:16;;;;;;;90.85;59.90;;;20.30;52.30;;;;;;4927817;28;89946;-80
2021/12/14 10:08:52;;;;;;;90.55;60.22;;;20.30;52.40;;;;;;4927479;28;91005;-81
2021/12/14 10:11:42;;;;;;;90.93;59.85;;;20.30;52.40;;;;;;4932502;28;95214;-81
2021/12/14 10:14:11;;;;;;;87.47;58.70;;;20.30;52.70;;;;;;4922506;28;91975;-80
2021/12/14 10:16:37;;;;;;;87.85;59.88;;;20.30;52.80;;;;;;4932509;28;92972;-80
2021/12/14 10:19:09;;;;;;;89.45;59.05;;;20.40;52.80;;;;;;4931930;28;90538;-81
2021/12/14 10:21:39;;;;;;;89.18;58.33;;;20.50;52.70;;;;;;4934200;28;91854;-82
2021/12/14 10:24:07;;;;;;;87.28;58.40;;;20.60;52.60;;;;;;4918687;28;95161;-80
2021/12/14 10:26:36;;;;;;;85.85;58.42;;;20.70;52.60;;;;;;4930550;28;94394;-81
2021/12/14 10:29:03;;;;;;;86.95;57.63;;;20.90;52.40;;;;;;4933206;28;89883;-82
2021/12/14 10:31:44;;;;;;;88.80;57.05;;;21.00;52.40;;;;;;4936092;28;91476;-80
2021/12/14 10:34:17;;;;;;;85.90;57.67;;;21.10;52.10;;;;;;4940926;28;94447;-79
2021/12/14 10:36:46;;;;;;;86.05;57.55;;;21.30;51.90;;;;;;4933454;28;89480;-80
2021/12/14 10:42:37;;;;;;;87.32;57.80;;;21.30;51.70;;;;;;4935451;28;89707;-79
2021/12/14 10:45:02;;;;;;;86.93;56.97;;;21.60;51.40;;;;;;4934123;28;90494;-81
2021/12/14 10:47:30;;;;;;;83.15;56.65;;;21.70;51.10;;;;;;4921987;28;89526;-80
2021/12/14 10:49:58;;;;;;;87.78;56.78;;;21.70;51.00;;;;;;4921025;28;91536;-81
2021/12/14 10:52:27;;;;;;;85.80;56.50;;;21.80;51.10;;;;;;4919252;28;90693;-81
2021/12/14 10:54:58;;;;;;;86.28;56.65;;;21.90;50.80;;;;;;4915593;28;91409;-80
2021/12/14 10:57:28;;;;;;;83.70;56.23;;;22.00;50.80;;;;;;4922067;28;91095;-82
2021/12/14 10:59:56;;;;;;;88.78;56.25;;;22.00;50.60;;;;;;4921357;28;89752;-81
2021/12/14 11:02:24;;;;;;;84.55;56.50;;;22.10;50.40;;;;;;4922615;28;91530;-82
2021/12/14 11:04:56;;;;;;;84.95;55.33;;;22.20;50.40;;;;;;4923214;28;90451;-81
2021/12/14 11:07:27;;;;;;;85.13;55.85;;;22.20;50.30;;;;;;4927823;28;89378;-80
2021/12/14 11:10:03;;;;;;;85.97;56.53;;;22.30;50.00;;;;;;4924852;28;90900;-81
2021/12/14 11:12:36;;;;;;;89.40;55.83;;;22.30;50.20;;;;;;4922768;28;91110;-81
2021/12/14 11:15:19;;;;;;;86.28;55.83;;;22.30;50.10;;;;;;4921311;28;91158;-81
2021/12/14 11:20:41;;;;;;;81.75;55.45;;;22.40;49.80;;;;;;4921428;28;89415;-80
2021/12/14 11:23:09;;;;;;;83.72;55.20;;;22.40;50.60;;;;;;4925210;28;90756;-81
2021/12/14 11:26:14;;;;;;;87.25;55.83;;;22.40;50.00;;;;;;4922822;28;90188;-81
2021/12/14 11:28:54;;;;;;;91.78;55.38;;;22.40;50.00;;;;;;4927812;28;92523;-81
2021/12/14 11:31:43;;;;;;;87.30;55.90;;;22.40;50.10;;;;;;4926300;28;91196;-81
2021/12/14 11:34:17;;;;;;;86.95;55.17;;;22.40;50.10;;;;;;4932798;28;91246;-82
2021/12/14 11:36:55;;;;;;;87.53;55.28;;;22.40;50.30;;;;;;4929012;28;89651;-80
2021/12/14 11:39:27;;;;;;;88.38;55.10;;;22.40;50.30;;;;;;4922893;28;90108;-80
2021/12/14 11:41:59;;;;;;;85.43;55.60;;;22.30;51.10;;;;;;4939919;28;90509;-82
2021/12/14 11:44:24;;;;;;;89.88;55.90;;;22.30;50.60;;;;;;4924686;28;91516;-81
2021/12/14 11:46:59;;;;;;;92.18;55.28;;;22.30;50.80;;;;;;4932680;28;92438;-81
2021/12/14 11:49:58;;;;;;;87.10;55.13;;;22.30;50.80;;;;;;4932737;28;90123;-81
2021/12/14 11:52:50;;;;;;;84.93;55.28;;;22.30;50.80;;;;;;4929901;28;90266;-80
2021/12/14 11:55:42;;;;;;;90.63;55.17;;;22.30;50.80;;;;;;4925825;28;93467;-81
2021/12/14 11:58:16;;;;;;;88.18;54.83;;;22.30;50.70;;;;;;4924816;28;89946;-80
2021/12/14 12:00:51;;;;;;;85.15;55.00;;;22.30;50.80;;;;;;4928290;28;88853;-80
2021/12/14 12:03:35;;;;;;;83.95;55.28;;;22.20;50.90;;;;;;4919686;28;90063;-82
2021/12/14 12:06:13;;;;;;;85.45;55.03;;;22.20;50.80;;;;;;4912478;28;90804;-81
2021/12/14 12:11:37;;;;;;;84.75;55.58;;;22.20;50.80;;;;;;4934161;28;89772;-82
2021/12/14 12:14:25;;;;;;;85.32;55.83;;;22.10;51.00;;;;;;4939122;28;89956;-81
2021/12/14 12:16:54;;;;;;;88.65;55.00;;;22.00;51.00;;;;;;4928817;28;92345;-82
2021/12/14 12:19:24;;;;;;;90.07;54.85;;;22.00;51.30;;;;;;4919299;28;91203;-80
2021/12/14 12:21:51;;;;;;;83.85;54.92;;;22.00;51.30;;;;;;4929033;28;90075;-79
2021/12/14 12:24:38;;;;;;;86.93;54.65;;;22.00;51.30;;;;;;4919512;28;97559;-81
2021/12/14 12:27:21;;;;;;;86.43;54.13;;;22.10;51.20;;;;;;4920499;28;90307;-82
2021/12/14 12:30:08;;;;;;;83.82;54.60;;;22.10;51.20;;;;;;4922492;28;94364;-81
2021/12/14 12:32:35;;;;;;;84.50;55.90;;;22.00;51.20;;;;;;4942277;28;97251;-79
2021/12/14 12:35:01;;;;;;;84.88;55.40;;;21.90;51.30;;;;;;4922698;28;91748;-81
2021/12/14 12:37:44;;;;;;;84.47;55.20;;;21.90;51.40;;;;;;4919014;28;91950;-80
2021/12/14 12:40:14;;;;;;;86.68;54.83;;;21.90;51.60;;;;;;4929652;28;89985;-80
2021/12/14 12:42:41;;;;;;;84.25;54.50;;;21.80;51.60;;;;;;4925155;28;91284;-81
2021/12/14 12:45:33;;;;;;;83.47;54.75;;;21.80;51.70;;;;;;4927624;28;89572;-80
2021/12/14 12:48:02;;;;;;;84.97;54.63;;;21.80;51.70;;;;;;4931582;28;91279;-80
2021/12/14 12:50:29;;;;;;;87.20;54.65;;;21.80;52.10;;;;;;4933439;28;89870;-80
2021/12/14 12:52:56;;;;;;;84.75;54.58;;;21.80;52.40;;;;;;4932873;28;89320;-80
2021/12/14 12:55:35;;;;;;;88.15;54.33;;;21.80;52.60;;;;;;4928906;28;91121;-81
2021/12/14 12:58:12;;;;;;;87.35;54.58;;;21.90;52.80;;;;;;4939238;28;90725;-81
2021/12/14 13:00:43;;;;;;;89.35;54.28;;;21.90;53.10;;;;;;4933353;28;90915;-81
2021/12/14 13:03:16;;;;;;;85.00;54.55;;;21.90;53.40;;;;;;4928104;28;89946;-81
2021/12/14 13:06:07;;;;;;;88.80;55.22;;;21.90;53.70;;;;;;4926216;28;89676;-81
2021/12/14 13:08:37;;;;;;;83.85;54.85;;;21.90;53.70;;;;;;4920206;28;90891;-82
2021/12/14 13:11:40;;;;;;;82.45;54.50;;;21.90;53.30;;;;;;4932920;28;93571;-83
2021/12/14 13:14:07;;;;;;;81.93;54.17;;;21.90;53.50;;;;;;4930611;28;93837;-81
2021/12/14 13:16:33;;;;;;;85.15;54.45;;;21.80;53.40;;;;;;4921099;28;89924;-82
2021/12/14 13:19:03;;;;;;;86.53;54.83;;;21.80;53.40;;;;;;4924714;28;90424;-81
2021/12/14 13:21:57;;;;;;;83.75;54.55;;;21.90;53.70;;;;;;4925776;28;90804;-79
2021/12/14 13:24:33;;;;;;;82.43;53.88;;;21.80;53.10;;;;;;4924931;28;94825;-80
2021/12/14 13:26:59;;;;;;;84.22;54.50;;;21.80;53.00;;;;;;4927654;28;91797;-82
2021/12/14 13:29:36;;;;;;;85.30;55.22;;;21.80;53.10;;;;;;4917640;28;91120;-79